Rothschild, Wisconsin
Current Conditions -  °F | °C
As of 5:54 AM on Monday 24 Nov 2014 (Local Time) from KAUW Reporting Station
Light Rain Light Rain  
Wind Chill:   Ceiling: 900
Heat Index:   Visibility: 10mi
Dew Point:   Wind: 12mph
Humidity: 96%   Direction: 330°NNW
Pressure: 29.04"   Gusts: NA
Location:  44.89°N, 89.62°W
Report Text: KAUW 241154Z AUTO 33010KT 10SM -RA OVC009 04/03 A2904 RMK AO2 SLP845 P0002 60011 70021 T00390033 10050 20039 55004
Loading
Personal Weather Stations






























Interactive Weather Map New forecast layout! Learn more

10-Day Weather Forecast

Advertisements
Track Severe Weather on mobile